Time;durP1;ratioP1;P1;durP2;ratioP2;P2;SDS_P1;SDS_P2;PMS_P1;PMS_P2;Temp;Humidity;BMP_temperature;BMP_pressure;BME280_temperature;BME280_humidity;BME280_pressure;Samples;Min_cycle;Max_cycle;Signal;HPM_P1;HPM_P2
2021/08/12 00:01:20;;;;;;;5.70;4.35;;;23.20;63.40;;;;;;5034582;28;20105;-61
2021/08/12 00:03:45;;;;;;;6.28;4.60;;;23.20;63.50;;;;;;5035124;28;20035;-61
2021/08/12 00:06:12;;;;;;;7.22;5.03;;;23.20;63.20;;;;;;5034878;28;20025;-62
2021/08/12 00:08:38;;;;;;;6.70;5.10;;;23.10;63.10;;;;;;5034973;28;20030;-62
2021/08/12 00:11:04;;;;;;;6.55;5.35;;;23.10;63.20;;;;;;5034858;28;20035;-62
2021/08/12 00:13:30;;;;;;;7.70;5.38;;;23.10;63.10;;;;;;5035527;28;20028;-62
2021/08/12 00:15:56;;;;;;;7.47;4.85;;;23.10;63.00;;;;;;5034859;28;20021;-62
2021/08/12 00:18:21;;;;;;;7.15;5.05;;;23.10;63.10;;;;;;5033555;28;20026;-62
2021/08/12 00:20:47;;;;;;;6.03;4.93;;;23.10;63.10;;;;;;5034758;28;20049;-62
2021/08/12 00:23:13;;;;;;;5.97;4.88;;;23.00;63.20;;;;;;5033811;28;20091;-62
2021/08/12 00:25:39;;;;;;;6.35;4.80;;;23.10;63.30;;;;;;5034117;28;20416;-62
2021/08/12 00:28:04;;;;;;;5.60;4.15;;;23.00;63.30;;;;;;5034675;28;20021;-62
2021/08/12 00:30:30;;;;;;;6.15;4.47;;;23.00;63.30;;;;;;5035098;28;20045;-61
2021/08/12 00:32:56;;;;;;;7.47;4.18;;;23.00;63.30;;;;;;5034355;28;20076;-61
2021/08/12 00:35:21;;;;;;;6.13;4.63;;;23.00;63.50;;;;;;5033850;28;20100;-61
2021/08/12 00:37:47;;;;;;;5.47;4.28;;;23.00;63.40;;;;;;5034411;28;20025;-61
2021/08/12 00:40:16;;;;;;;5.80;4.57;;;22.90;63.30;;;;;;5034276;28;20029;-61
2021/08/12 00:42:42;;;;;;;6.40;4.47;;;22.90;63.60;;;;;;5034625;28;20546;-61
2021/08/12 00:45:08;;;;;;;4.20;3.80;;;22.90;63.50;;;;;;5034123;28;20022;-61
2021/08/12 00:47:34;;;;;;;8.05;4.80;;;22.90;64.00;;;;;;5034227;28;20021;-61
2021/08/12 00:49:59;;;;;;;5.47;4.60;;;22.90;63.90;;;;;;5034127;28;20532;-61
2021/08/12 00:52:25;;;;;;;6.00;4.40;;;22.90;64.10;;;;;;5034550;28;20369;-61
2021/08/12 00:54:51;;;;;;;6.88;4.57;;;22.80;64.10;;;;;;5033824;28;20026;-61
2021/08/12 00:57:19;;;;;;;6.88;4.40;;;22.80;64.00;;;;;;5034041;28;20025;-61
2021/08/12 00:59:45;;;;;;;7.30;4.22;;;22.80;64.20;;;;;;5031728;28;20044;-61
2021/08/12 01:02:11;;;;;;;6.65;4.72;;;22.80;64.40;;;;;;5033854;28;20493;-61
2021/08/12 01:04:39;;;;;;;5.97;4.35;;;22.80;64.10;;;;;;5033888;28;20017;-61
2021/08/12 01:07:27;;;;;;;5.95;4.40;;;22.70;64.30;;;;;;5033571;28;20037;-61
2021/08/12 01:10:07;;;;;;;5.25;4.28;;;22.70;64.40;;;;;;5032409;28;20045;-61
2021/08/12 01:12:40;;;;;;;5.18;4.15;;;22.70;64.10;;;;;;5030010;28;20390;-61
2021/08/12 01:15:09;;;;;;;6.40;4.80;;;22.70;64.30;;;;;;5033689;28;20017;-61
2021/08/12 01:17:43;;;;;;;7.45;4.60;;;22.70;64.40;;;;;;5033623;28;20017;-61
2021/08/12 01:20:19;;;;;;;5.93;4.22;;;22.60;64.40;;;;;;5031712;28;20017;-61
2021/08/12 01:22:47;;;;;;;6.60;4.65;;;22.60;64.40;;;;;;5032454;28;20508;-61
2021/08/12 01:25:28;;;;;;;5.43;4.25;;;22.60;64.40;;;;;;5033167;28;20037;-61
2021/08/12 01:27:58;;;;;;;5.85;4.07;;;22.60;64.60;;;;;;5030156;28;20018;-61
2021/08/12 01:30:30;;;;;;;5.87;4.60;;;22.60;64.80;;;;;;5032957;28;20040;-61
2021/08/12 01:33:26;;;;;;;5.80;4.25;;;22.50;65.00;;;;;;5033242;28;20028;-61
2021/08/12 01:35:53;;;;;;;5.88;3.85;;;22.50;65.80;;;;;;5031776;28;20100;-61
2021/08/12 01:38:28;;;;;;;5.45;4.43;;;22.50;65.40;;;;;;5031984;28;20029;-61
2021/08/12 01:40:56;;;;;;;4.85;4.22;;;22.50;65.30;;;;;;5031227;28;20099;-61
2021/08/12 01:43:23;;;;;;;8.30;4.90;;;22.50;65.40;;;;;;5031740;28;20013;-61
2021/08/12 01:45:54;;;;;;;6.28;4.68;;;22.50;65.80;;;;;;5033154;28;20025;-61
2021/08/12 01:48:22;;;;;;;5.95;4.43;;;22.50;65.80;;;;;;5033526;28;20083;-61
2021/08/12 01:50:50;;;;;;;6.05;4.28;;;22.40;66.10;;;;;;5033540;28;20523;-61
2021/08/12 01:53:18;;;;;;;7.28;4.18;;;22.40;66.00;;;;;;5033869;28;20025;-61
2021/08/12 01:55:44;;;;;;;6.90;4.93;;;22.40;66.00;;;;;;5031929;28;20022;-61
2021/08/12 01:58:12;;;;;;;5.20;3.95;;;22.40;66.00;;;;;;5032826;28;20021;-61
2021/08/12 02:00:38;;;;;;;7.22;4.53;;;22.40;66.00;;;;;;5033000;28;20017;-61
2021/08/12 02:03:05;;;;;;;5.05;4.07;;;22.40;66.00;;;;;;5032960;28;20021;-61
2021/08/12 02:05:33;;;;;;;5.90;4.05;;;22.40;66.00;;;;;;5033298;28;20466;-62
2021/08/12 02:07:58;;;;;;;5.40;4.30;;;22.40;66.10;;;;;;5032987;28;20021;-62
2021/08/12 02:10:24;;;;;;;5.50;4.13;;;22.30;66.00;;;;;;5033051;28;20017;-61
2021/08/12 02:12:50;;;;;;;6.47;4.57;;;22.30;66.00;;;;;;5032634;28;20067;-61
2021/08/12 02:15:15;;;;;;;4.97;4.03;;;22.30;66.00;;;;;;5032984;28;20026;-62
2021/08/12 02:17:41;;;;;;;6.55;4.22;;;22.20;66.10;;;;;;5033107;28;20148;-62
2021/08/12 02:20:10;;;;;;;5.57;3.67;;;22.20;66.10;;;;;;5032895;28;20029;-62
2021/08/12 02:22:48;;;;;;;6.75;4.13;;;22.20;66.00;;;;;;5032532;28;20240;-62
2021/08/12 02:25:26;;;;;;;5.53;3.60;;;22.20;66.20;;;;;;5028923;28;20036;-62
2021/08/12 02:27:53;;;;;;;4.45;3.55;;;22.10;66.10;;;;;;5033306;28;20086;-62
2021/08/12 02:30:20;;;;;;;4.93;3.90;;;22.10;66.30;;;;;;5032246;28;20049;-62
2021/08/12 02:32:47;;;;;;;6.30;4.40;;;22.10;66.20;;;;;;5030383;28;20018;-62
2021/08/12 02:35:15;;;;;;;6.03;4.88;;;22.10;66.10;;;;;;5032931;28;20025;-62
2021/08/12 02:37:42;;;;;;;5.50;4.20;;;22.10;66.10;;;;;;5032824;28;20028;-61
2021/08/12 02:40:08;;;;;;;5.55;4.32;;;22.10;66.10;;;;;;5032883;28;20022;-61
2021/08/12 02:42:38;;;;;;;5.03;4.45;;;22.10;66.00;;;;;;5033057;28;20527;-61
2021/08/12 02:45:05;;;;;;;6.32;4.30;;;22.00;65.80;;;;;;5032113;28;20056;-61
2021/08/12 02:47:32;;;;;;;6.07;4.38;;;22.00;65.90;;;;;;5032715;28;20535;-61
2021/08/12 02:50:01;;;;;;;5.82;4.45;;;22.00;65.90;;;;;;5035939;28;20460;-61
2021/08/12 02:52:27;;;;;;;6.05;4.53;;;21.90;65.90;;;;;;5034276;28;20022;-61
2021/08/12 02:54:53;;;;;;;4.78;4.22;;;21.90;66.00;;;;;;5036169;28;20576;-61
2021/08/12 02:57:20;;;;;;;5.50;4.30;;;21.80;66.10;;;;;;5036345;28;20060;-61
2021/08/12 02:59:47;;;;;;;5.82;4.22;;;21.80;66.10;;;;;;5033618;28;20445;-61
2021/08/12 03:02:16;;;;;;;5.85;4.57;;;21.80;66.30;;;;;;5035741;28;20103;-61
2021/08/12 03:04:43;;;;;;;5.90;4.60;;;21.80;66.40;;;;;;5036103;28;20104;-61
2021/08/12 03:07:10;;;;;;;6.40;4.22;;;21.80;66.70;;;;;;5036004;28;20072;-61
2021/08/12 03:09:37;;;;;;;7.43;4.65;;;21.80;66.60;;;;;;5036171;28;20009;-62
2021/08/12 03:12:04;;;;;;;5.82;4.47;;;21.80;66.70;;;;;;5036009;28;20402;-62
2021/08/12 03:14:35;;;;;;;7.03;4.60;;;21.80;66.70;;;;;;5036057;28;20014;-62
2021/08/12 03:17:02;;;;;;;5.45;4.55;;;21.80;66.90;;;;;;5035500;28;20033;-62
2021/08/12 03:19:28;;;;;;;5.97;4.53;;;21.80;66.80;;;;;;5035847;28;20029;-62
2021/08/12 03:22:03;;;;;;;4.82;4.10;;;21.90;66.90;;;;;;5035999;28;20029;-62
2021/08/12 03:24:32;;;;;;;5.13;4.10;;;22.00;67.00;;;;;;5036102;28;20040;-62
2021/08/12 03:26:57;;;;;;;6.80;4.30;;;22.00;67.00;;;;;;5035844;28;20021;-62
2021/08/12 03:29:23;;;;;;;7.32;4.18;;;22.10;67.00;;;;;;5032966;28;20025;-62
2021/08/12 03:31:49;;;;;;;5.10;4.13;;;22.20;66.80;;;;;;5035378;28;20359;-62
2021/08/12 03:34:15;;;;;;;5.47;4.72;;;22.30;67.00;;;;;;5035059;28;20116;-61
2021/08/12 03:36:40;;;;;;;5.68;4.15;;;22.40;66.70;;;;;;5035505;28;20029;-60
2021/08/12 03:39:06;;;;;;;5.70;4.65;;;22.50;66.70;;;;;;5034664;28;20056;-60
2021/08/12 03:41:31;;;;;;;5.20;4.13;;;22.60;66.40;;;;;;5035426;28;20026;-60
2021/08/12 03:43:57;;;;;;;5.82;4.75;;;22.70;66.30;;;;;;5035307;28;20045;-60
2021/08/12 03:46:23;;;;;;;5.43;4.50;;;22.80;66.00;;;;;;5035324;28;20029;-59
2021/08/12 03:48:48;;;;;;;6.00;4.38;;;22.90;65.80;;;;;;5035895;28;20023;-60
2021/08/12 03:51:14;;;;;;;6.40;4.20;;;23.00;65.30;;;;;;5033488;28;20053;-60
2021/08/12 03:53:40;;;;;;;6.55;4.20;;;23.10;65.00;;;;;;5037442;28;20083;-60
2021/08/12 03:56:05;;;;;;;6.13;4.70;;;23.10;64.90;;;;;;5035321;28;20018;-60
2021/08/12 03:58:32;;;;;;;6.80;4.60;;;23.20;65.10;;;;;;5035030;28;20021;-60
2021/08/12 04:00:58;;;;;;;6.18;4.45;;;23.20;64.70;;;;;;5034499;28;20036;-60
2021/08/12 04:03:24;;;;;;;4.88;4.28;;;23.30;64.80;;;;;;5035261;28;20113;-60
2021/08/12 04:05:50;;;;;;;7.82;4.40;;;23.40;64.80;;;;;;5034917;28;20025;-60
2021/08/12 04:08:16;;;;;;;5.18;4.15;;;23.70;65.10;;;;;;5034095;28;20053;-60
2021/08/12 04:10:42;;;;;;;6.07;4.53;;;24.00;65.20;;;;;;5035051;28;20052;-60
2021/08/12 04:13:08;;;;;;;5.65;4.20;;;24.40;64.60;;;;;;5034627;28;20018;-60
2021/08/12 04:15:34;;;;;;;5.90;4.60;;;24.90;63.50;;;;;;5034568;28;20029;-60
2021/08/12 04:18:00;;;;;;;5.65;4.32;;;25.30;62.00;;;;;;5034548;28;20464;-60
2021/08/12 04:20:25;;;;;;;5.07;4.20;;;25.50;60.90;;;;;;5034625;28;20464;-60
2021/08/12 04:22:51;;;;;;;5.13;4.20;;;25.70;60.50;;;;;;5034202;28;20476;-60
2021/08/12 04:25:17;;;;;;;5.45;3.90;;;26.00;60.10;;;;;;5033903;28;20041;-60
2021/08/12 04:27:42;;;;;;;5.53;4.18;;;26.30;59.60;;;;;;5034665;28;20021;-61
2021/08/12 04:30:09;;;;;;;7.90;4.95;;;26.30;58.80;;;;;;5034568;28;20112;-61
2021/08/12 04:32:37;;;;;;;5.95;4.30;;;26.30;58.70;;;;;;5034503;28;20099;-61
2021/08/12 04:35:05;;;;;;;5.40;4.32;;;26.20;58.50;;;;;;5034376;28;20080;-61
2021/08/12 04:37:45;;;;;;;5.40;4.38;;;26.10;58.50;;;;;;5034521;28;20050;-62
2021/08/12 04:40:19;;;;;;;5.88;4.28;;;25.90;58.30;;;;;;5034780;28;20033;-62
2021/08/12 04:42:49;;;;;;;7.18;4.68;;;25.80;58.70;;;;;;5033879;28;20112;-62
2021/08/12 04:45:19;;;;;;;5.65;4.32;;;25.70;58.90;;;;;;5008097;28;20026;-62
2021/08/12 04:47:44;;;;;;;5.93;4.80;;;25.80;59.00;;;;;;5034156;28;20029;-62
2021/08/12 04:50:12;;;;;;;6.07;4.40;;;25.90;59.10;;;;;;5034161;28;20022;-61
2021/08/12 04:52:40;;;;;;;5.53;4.40;;;26.20;59.00;;;;;;5034093;28;20060;-61
2021/08/12 04:55:08;;;;;;;6.60;4.70;;;26.50;58.60;;;;;;5034222;28;20424;-61
2021/08/12 04:57:34;;;;;;;4.95;4.20;;;26.70;58.20;;;;;;5034161;28;20101;-61
2021/08/12 05:00:00;;;;;;;6.95;4.50;;;27.10;57.60;;;;;;5033390;28;20101;-61
2021/08/12 05:02:26;;;;;;;6.15;4.95;;;27.40;57.00;;;;;;5033972;28;20044;-61
2021/08/12 05:04:52;;;;;;;6.70;4.55;;;27.60;56.70;;;;;;5033992;28;20020;-62
2021/08/12 05:07:18;;;;;;;5.88;4.97;;;27.70;56.60;;;;;;5033903;28;20071;-62
2021/08/12 05:09:44;;;;;;;4.93;4.28;;;28.00;56.60;;;;;;5033893;28;20021;-63
2021/08/12 05:12:09;;;;;;;5.13;4.18;;;28.40;56.10;;;;;;5032662;28;20112;-63
2021/08/12 05:14:35;;;;;;;5.35;4.20;;;28.80;55.20;;;;;;5033208;28;20535;-63
2021/08/12 05:17:01;;;;;;;5.65;4.40;;;29.00;54.60;;;;;;5030805;28;20033;-63
2021/08/12 05:19:26;;;;;;;6.63;4.40;;;29.00;54.40;;;;;;5030395;28;20032;-62
2021/08/12 05:21:52;;;;;;;4.93;3.90;;;28.90;54.90;;;;;;5026615;28;20124;-62
2021/08/12 05:24:18;;;;;;;6.13;4.10;;;28.70;55.10;;;;;;5029719;28;20029;-62
2021/08/12 05:26:44;;;;;;;6.63;4.38;;;28.40;55.00;;;;;;5029442;28;20079;-62
2021/08/12 05:29:10;;;;;;;4.63;3.92;;;28.20;55.20;;;;;;5023585;28;20473;-62
2021/08/12 05:31:35;;;;;;;5.53;4.43;;;27.90;55.30;;;;;;5026250;28;20048;-59
2021/08/12 05:34:01;;;;;;;6.88;4.75;;;27.70;55.70;;;;;;5023409;28;20033;-62
2021/08/12 05:36:28;;;;;;;8.20;4.82;;;27.60;55.80;;;;;;5029971;28;20049;-62
2021/08/12 05:38:57;;;;;;;5.75;4.80;;;27.70;55.90;;;;;;5026217;28;20037;-62
2021/08/12 05:41:23;;;;;;;6.57;4.90;;;27.70;55.70;;;;;;5024861;28;20095;-62
2021/08/12 05:43:49;;;;;;;6.32;4.68;;;27.70;55.70;;;;;;5022347;28;20059;-62
2021/08/12 05:46:15;;;;;;;5.03;4.47;;;27.70;55.90;;;;;;5025618;28;20029;-62
2021/08/12 05:48:41;;;;;;;6.15;4.32;;;27.60;56.00;;;;;;5025921;28;20128;-62
2021/08/12 05:51:06;;;;;;;6.47;4.68;;;27.50;56.10;;;;;;5021511;28;20144;-62
2021/08/12 05:53:32;;;;;;;6.47;5.18;;;27.30;56.40;;;;;;5023723;28;20464;-62
2021/08/12 05:55:58;;;;;;;5.40;4.88;;;27.20;56.60;;;;;;5026139;28;20030;-58
2021/08/12 05:58:23;;;;;;;5.97;4.80;;;27.10;57.00;;;;;;5019779;28;20749;-59
2021/08/12 06:00:49;;;;;;;5.78;4.65;;;26.90;57.80;;;;;;5019767;28;20101;-58
2021/08/12 06:03:16;;;;;;;5.88;4.63;;;26.80;57.60;;;;;;5024303;28;20037;-57
2021/08/12 06:05:42;;;;;;;5.93;5.10;;;26.60;57.80;;;;;;5019450;28;20035;-58
2021/08/12 06:08:10;;;;;;;6.03;4.72;;;26.50;58.10;;;;;;5023565;28;20041;-57
2021/08/12 06:10:36;;;;;;;5.10;4.60;;;26.40;58.30;;;;;;5019451;28;20060;-58
2021/08/12 06:13:02;;;;;;;6.32;4.85;;;26.30;58.60;;;;;;5019575;28;20025;-60
2021/08/12 06:15:29;;;;;;;5.82;5.03;;;26.20;58.80;;;;;;5020258;28;20085;-62
2021/08/12 06:17:55;;;;;;;5.50;4.53;;;26.20;59.40;;;;;;4999626;28;20033;-62
2021/08/12 06:20:22;;;;;;;7.78;5.68;;;26.10;59.50;;;;;;5020214;28;21639;-61
2021/08/12 06:22:49;;;;;;;6.63;4.70;;;26.10;59.70;;;;;;5023819;28;20041;-61
2021/08/12 06:25:16;;;;;;;7.50;5.25;;;26.10;59.70;;;;;;5027923;28;20032;-60
2021/08/12 06:27:42;;;;;;;5.82;4.93;;;26.00;60.00;;;;;;5026778;28;20067;-61
2021/08/12 06:30:09;;;;;;;5.88;4.60;;;26.00;60.10;;;;;;5026698;28;20034;-61
2021/08/12 06:32:35;;;;;;;7.07;5.63;;;26.00;60.30;;;;;;5022848;28;20103;-61
2021/08/12 06:35:01;;;;;;;5.43;4.50;;;26.00;60.40;;;;;;5026796;28;20465;-62
2021/08/12 06:37:30;;;;;;;5.75;4.97;;;26.00;60.40;;;;;;5024181;28;20705;-62
2021/08/12 06:39:57;;;;;;;4.95;4.10;;;26.00;60.50;;;;;;5024123;28;20018;-66
2021/08/12 06:42:22;;;;;;;5.07;4.40;;;26.00;60.60;;;;;;5027870;28;20516;-65
2021/08/12 06:44:48;;;;;;;5.50;4.68;;;26.00;60.40;;;;;;5029921;28;20040;-65
2021/08/12 06:47:14;;;;;;;4.95;4.38;;;26.00;60.30;;;;;;5021045;28;20051;-63
2021/08/12 06:49:39;;;;;;;6.15;4.75;;;26.00;60.30;;;;;;5028391;28;20037;-60
2021/08/12 06:52:05;;;;;;;5.57;4.78;;;26.00;60.60;;;;;;5022651;28;20049;-61
2021/08/12 06:54:31;;;;;;;5.35;4.57;;;26.00;60.70;;;;;;5021814;28;20051;-61
2021/08/12 06:56:57;;;;;;;6.20;5.18;;;26.00;60.90;;;;;;5022586;28;20033;-62
2021/08/12 06:59:23;;;;;;;4.95;4.43;;;26.00;60.80;;;;;;5020570;28;20609;-61
2021/08/12 07:01:48;;;;;;;5.45;4.13;;;25.90;60.90;;;;;;5019321;28;20048;-62
2021/08/12 07:04:14;;;;;;;5.50;4.38;;;25.90;60.80;;;;;;5018425;28;20045;-61
2021/08/12 07:06:40;;;;;;;5.40;4.07;;;25.90;60.80;;;;;;5015940;28;20040;-62
2021/08/12 07:09:06;;;;;;;4.88;4.35;;;25.90;60.80;;;;;;5017190;28;20026;-61
2021/08/12 07:11:31;;;;;;;6.00;4.50;;;25.90;60.90;;;;;;5014950;28;20030;-60
2021/08/12 07:13:57;;;;;;;4.95;4.30;;;25.90;60.90;;;;;;5017011;28;20037;-60
2021/08/12 07:16:23;;;;;;;6.85;4.63;;;25.90;61.00;;;;;;5010274;28;20038;-60
2021/08/12 07:18:49;;;;;;;6.63;4.43;;;25.90;61.00;;;;;;5016805;28;20886;-59
2021/08/12 07:21:16;;;;;;;6.10;4.53;;;25.90;61.00;;;;;;5014361;28;20851;-61
2021/08/12 07:23:41;;;;;;;5.85;4.63;;;25.90;61.00;;;;;;5013170;28;20164;-60
2021/08/12 07:26:12;;;;;;;7.20;5.00;;;25.90;61.20;;;;;;5015327;28;20752;-59
2021/08/12 07:28:38;;;;;;;4.80;4.30;;;25.90;61.40;;;;;;5019388;28;20071;-62
2021/08/12 07:31:04;;;;;;;6.85;4.32;;;25.90;61.40;;;;;;5014570;28;20042;-62
2021/08/12 07:33:29;;;;;;;6.35;4.40;;;25.90;61.50;;;;;;5014765;28;20564;-62
2021/08/12 07:35:58;;;;;;;7.60;4.88;;;25.90;61.50;;;;;;5004725;28;20095;-62
2021/08/12 07:38:23;;;;;;;5.28;4.60;;;25.90;61.80;;;;;;5019795;28;20063;-62
2021/08/12 07:40:49;;;;;;;6.35;4.88;;;25.90;62.00;;;;;;5008272;28;20112;-62
2021/08/12 07:43:15;;;;;;;6.10;4.40;;;26.00;62.10;;;;;;5011381;28;20034;-62
2021/08/12 07:45:40;;;;;;;5.32;4.70;;;26.00;62.20;;;;;;4992678;28;20432;-62
2021/08/12 07:48:06;;;;;;;4.97;4.10;;;26.00;61.90;;;;;;5012897;28;20079;-62
2021/08/12 07:50:32;;;;;;;5.68;4.88;;;26.00;61.90;;;;;;5014977;28;20456;-61
2021/08/12 07:52:57;;;;;;;5.38;4.55;;;26.00;61.90;;;;;;5013745;28;20511;-61
2021/08/12 07:55:23;;;;;;;4.95;4.30;;;26.00;62.10;;;;;;5008772;28;20033;-64
2021/08/12 07:57:50;;;;;;;5.10;4.18;;;26.00;61.90;;;;;;5012872;28;20072;-65
2021/08/12 08:00:16;;;;;;;4.80;4.05;;;26.00;61.60;;;;;;5013554;28;20033;-65
2021/08/12 08:02:47;;;;;;;5.32;4.35;;;26.00;61.30;;;;;;5009623;28;20057;-62
2021/08/12 08:05:18;;;;;;;5.55;4.45;;;26.00;61.30;;;;;;5013137;28;20526;-60
2021/08/12 08:07:46;;;;;;;5.45;4.35;;;26.00;61.10;;;;;;5021389;28;20033;-58
2021/08/12 08:10:12;;;;;;;4.95;4.40;;;26.00;61.10;;;;;;5020375;28;20022;-59
2021/08/12 08:12:39;;;;;;;4.75;4.07;;;26.00;61.00;;;;;;5014358;28;20040;-60
2021/08/12 08:15:05;;;;;;;4.60;4.03;;;26.00;60.70;;;;;;5017891;28;20017;-60
2021/08/12 08:17:30;;;;;;;8.27;4.40;;;25.90;60.80;;;;;;5014439;28;20037;-62
2021/08/12 08:19:57;;;;;;;6.35;4.32;;;25.90;60.80;;;;;;5015111;28;20029;-58
2021/08/12 08:22:24;;;;;;;4.45;4.03;;;25.90;61.00;;;;;;5012728;28;20040;-60
2021/08/12 08:24:49;;;;;;;6.10;4.00;;;25.90;60.90;;;;;;4993811;28;20120;-61
2021/08/12 08:27:15;;;;;;;5.32;4.00;;;25.90;60.80;;;;;;5012663;28;20032;-59
2021/08/12 08:29:40;;;;;;;5.45;4.35;;;25.90;60.40;;;;;;5013161;28;20040;-60
2021/08/12 08:32:07;;;;;;;5.20;4.50;;;25.90;60.10;;;;;;5017410;28;20044;-58
2021/08/12 08:34:33;;;;;;;4.72;3.85;;;25.80;60.00;;;;;;5019597;28;20067;-58
2021/08/12 08:36:59;;;;;;;5.63;4.43;;;25.80;59.90;;;;;;5016131;28;20033;-57
2021/08/12 08:39:24;;;;;;;5.95;4.43;;;25.80;60.00;;;;;;5013308;28;20107;-57
2021/08/12 08:41:51;;;;;;;6.80;4.78;;;25.80;59.80;;;;;;5011901;28;20132;-59
2021/08/12 08:44:21;;;;;;;5.15;4.32;;;25.70;59.70;;;;;;5010954;28;20066;-63
2021/08/12 08:46:47;;;;;;;5.28;4.68;;;25.70;59.70;;;;;;5016228;28;20473;-63
2021/08/12 08:49:17;;;;;;;5.20;4.20;;;25.70;59.60;;;;;;5015095;28;20215;-59
2021/08/12 08:51:44;;;;;;;4.35;3.92;;;25.60;59.60;;;;;;5016694;28;20028;-60
2021/08/12 08:54:11;;;;;;;6.05;3.97;;;25.60;59.60;;;;;;5018356;28;20064;-61
2021/08/12 08:56:40;;;;;;;6.20;4.00;;;25.60;59.60;;;;;;5020523;28;20037;-62
2021/08/12 08:59:07;;;;;;;5.25;4.38;;;25.60;59.50;;;;;;5018760;28;20029;-59
2021/08/12 09:01:34;;;;;;;5.03;4.53;;;25.60;59.40;;;;;;5008723;28;20072;-57
2021/08/12 09:04:00;;;;;;;6.28;4.25;;;25.60;59.30;;;;;;5011993;28;20033;-59
2021/08/12 09:06:26;;;;;;;5.25;4.10;;;25.60;59.20;;;;;;5016234;28;20033;-60
2021/08/12 09:08:53;;;;;;;5.75;4.55;;;25.50;59.20;;;;;;5016619;28;20069;-63
2021/08/12 09:11:19;;;;;;;4.82;4.05;;;25.50;58.90;;;;;;5017021;28;20036;-61
2021/08/12 09:13:44;;;;;;;4.63;3.75;;;25.50;58.60;;;;;;5014484;28;20678;-62
2021/08/12 09:16:38;;;;;;;4.65;4.15;;;25.50;58.50;;;;;;5018298;28;20040;-62
2021/08/12 09:19:20;;;;;;;5.72;3.90;;;25.50;58.30;;;;;;5014038;28;20037;-62
2021/08/12 09:21:52;;;;;;;4.80;3.90;;;25.50;58.50;;;;;;5011998;28;20037;-62
2021/08/12 09:24:19;;;;;;;7.85;3.67;;;25.40;58.40;;;;;;5008945;28;20025;-63
2021/08/12 09:26:46;;;;;;;4.82;3.70;;;25.40;58.40;;;;;;5007654;28;20034;-64
2021/08/12 09:29:29;;;;;;;4.10;3.05;;;25.40;58.40;;;;;;5012160;28;20917;-63
2021/08/12 09:31:57;;;;;;;6.57;3.78;;;25.40;57.90;;;;;;5010930;28;20061;-63
2021/08/12 09:34:24;;;;;;;5.18;3.70;;;25.40;57.50;;;;;;5015875;28;20029;-62
2021/08/12 09:37:03;;;;;;;5.10;3.67;;;25.40;57.50;;;;;;5017526;28;20537;-61
2021/08/12 09:39:29;;;;;;;5.38;3.88;;;25.40;57.30;;;;;;5011735;28;20030;-60
2021/08/12 09:41:56;;;;;;;4.90;3.38;;;25.40;57.40;;;;;;5015525;28;20033;-61
2021/08/12 09:44:51;;;;;;;5.50;3.08;;;25.40;57.20;;;;;;5015495;28;20033;-61
2021/08/12 09:47:19;;;;;;;5.47;3.03;;;25.40;57.30;;;;;;5011540;28;20030;-62
2021/08/12 09:49:53;;;;;;;5.03;3.20;;;25.40;58.10;;;;;;5010390;28;20040;-63
2021/08/12 09:52:19;;;;;;;6.82;3.30;;;25.40;57.30;;;;;;5019056;28;20022;-61
2021/08/12 09:54:46;;;;;;;5.60;3.25;;;25.40;57.20;;;;;;5016951;28;20037;-61
2021/08/12 09:57:21;;;;;;;10.35;3.40;;;25.40;57.20;;;;;;5017186;28;20044;-61
2021/08/12 09:59:48;;;;;;;4.15;2.88;;;25.40;56.40;;;;;;5017732;28;20040;-62
2021/08/12 10:02:13;;;;;;;3.15;2.60;;;25.40;56.20;;;;;;5023794;28;20484;-62
2021/08/12 10:04:39;;;;;;;3.20;2.63;;;25.40;55.90;;;;;;5016303;28;20036;-61
2021/08/12 10:07:05;;;;;;;3.47;2.50;;;25.40;55.60;;;;;;5020662;28;20060;-61
2021/08/12 10:09:41;;;;;;;3.28;2.80;;;25.40;55.40;;;;;;5016233;28;20156;-61
2021/08/12 10:12:08;;;;;;;3.05;2.63;;;25.40;55.60;;;;;;5020916;28;20026;-62
2021/08/12 10:14:34;;;;;;;4.80;2.97;;;25.40;55.70;;;;;;5018138;28;20086;-62
2021/08/12 10:17:02;;;;;;;4.65;2.88;;;25.40;55.40;;;;;;5020195;28;20037;-61
2021/08/12 10:19:29;;;;;;;3.40;2.90;;;25.40;55.30;;;;;;5020103;28;20029;-62
2021/08/12 10:21:55;;;;;;;3.13;2.25;;;25.40;55.20;;;;;;5021781;28;20113;-62
2021/08/12 10:24:25;;;;;;;3.55;2.60;;;25.40;55.30;;;;;;5022192;28;21808;-62
2021/08/12 10:26:52;;;;;;;3.90;2.37;;;25.40;55.30;;;;;;5020266;28;20038;-62
2021/08/12 10:29:23;;;;;;;2.60;2.40;;;25.40;55.40;;;;;;5022639;28;20508;-62
2021/08/12 10:31:50;;;;;;;3.70;2.50;;;25.40;55.40;;;;;;5022753;28;20052;-61
2021/08/12 10:34:16;;;;;;;2.95;2.53;;;25.40;55.30;;;;;;5022977;28;20030;-62
2021/08/12 10:36:45;;;;;;;3.13;2.83;;;25.40;55.20;;;;;;5023287;28;20025;-61
2021/08/12 10:39:13;;;;;;;3.20;2.60;;;25.40;55.30;;;;;;5023905;28;20026;-61
2021/08/12 10:41:41;;;;;;;3.92;2.80;;;25.40;55.30;;;;;;5020591;28;20029;-59
2021/08/12 10:44:07;;;;;;;3.58;2.70;;;25.50;55.30;;;;;;5020191;28;20025;-62
2021/08/12 10:46:34;;;;;;;3.45;2.70;;;25.50;56.00;;;;;;5034957;28;20030;-62
2021/08/12 10:49:28;;;;;;;3.53;2.80;;;25.40;55.30;;;;;;5019479;28;20022;-61
2021/08/12 10:52:07;;;;;;;3.38;2.70;;;25.40;55.50;;;;;;5017410;28;20022;-61
2021/08/12 10:54:40;;;;;;;2.90;2.60;;;25.50;55.70;;;;;;5020960;28;20069;-61
2021/08/12 10:57:12;;;;;;;3.75;2.80;;;25.50;55.60;;;;;;5021680;28;20034;-61
2021/08/12 10:59:39;;;;;;;3.08;2.78;;;25.40;55.70;;;;;;5027067;28;20067;-60
2021/08/12 11:02:26;;;;;;;3.20;2.70;;;25.50;55.40;;;;;;5023879;28;20454;-62
2021/08/12 11:04:53;;;;;;;3.22;2.92;;;25.50;55.50;;;;;;5024541;28;20405;-61
2021/08/12 11:07:37;;;;;;;3.85;2.58;;;25.50;55.60;;;;;;5022387;28;20061;-62
2021/08/12 11:10:06;;;;;;;2.90;2.60;;;25.50;55.30;;;;;;5022792;28;20037;-62
2021/08/12 11:12:53;;;;;;;5.75;3.50;;;25.50;55.40;;;;;;5014729;28;20030;-63
2021/08/12 11:15:37;;;;;;;4.47;2.60;;;25.60;55.40;;;;;;5016924;28;20108;-62
2021/08/12 11:18:06;;;;;;;2.60;2.40;;;25.50;55.40;;;;;;5018424;28;20981;-62
2021/08/12 11:20:34;;;;;;;3.45;2.60;;;25.60;55.20;;;;;;5018965;28;20469;-60
2021/08/12 11:23:21;;;;;;;4.18;2.45;;;25.60;55.20;;;;;;5024302;28;20036;-61
2021/08/12 11:25:57;;;;;;;6.03;3.05;;;25.60;54.70;;;;;;5024027;28;20118;-61
2021/08/12 11:28:41;;;;;;;3.20;2.70;;;25.60;54.60;;;;;;5025748;28;20540;-62
2021/08/12 11:31:37;;;;;;;3.30;2.65;;;25.60;54.50;;;;;;5020882;28;20046;-63
2021/08/12 11:34:15;;;;;;;2.83;2.50;;;25.60;54.50;;;;;;5012135;28;20979;-63
2021/08/12 11:37:09;;;;;;;3.03;2.30;;;25.60;54.10;;;;;;5020072;28;20095;-58
2021/08/12 11:39:54;;;;;;;2.55;2.35;;;25.60;53.90;;;;;;5018102;28;20135;-63
2021/08/12 11:42:38;;;;;;;3.78;2.40;;;25.60;54.00;;;;;;5022221;28;20033;-61
2021/08/12 11:45:06;;;;;;;2.50;2.30;;;25.60;53.80;;;;;;5015626;28;20029;-62
2021/08/12 11:47:32;;;;;;;3.60;2.70;;;25.60;54.10;;;;;;5016389;28;20025;-62
2021/08/12 11:49:59;;;;;;;3.80;2.60;;;25.60;53.80;;;;;;5021576;28;20060;-60
2021/08/12 11:52:35;;;;;;;4.18;2.47;;;25.60;54.00;;;;;;5015688;28;21085;-61
2021/08/12 11:55:08;;;;;;;3.75;2.80;;;25.60;54.20;;;;;;5020849;28;20036;-63
2021/08/12 11:57:37;;;;;;;3.20;2.80;;;25.60;54.00;;;;;;5019434;28;20033;-62
2021/08/12 12:00:14;;;;;;;3.55;2.90;;;25.60;54.40;;;;;;5020315;28;20033;-63
2021/08/12 12:03:01;;;;;;;3.22;2.80;;;25.70;54.80;;;;;;5021691;28;20108;-62
2021/08/12 12:05:29;;;;;;;5.10;2.50;;;25.70;54.40;;;;;;5020126;28;20037;-62
2021/08/12 12:07:57;;;;;;;5.15;2.92;;;25.60;54.40;;;;;;5022732;28;20021;-61
2021/08/12 12:10:31;;;;;;;4.45;2.60;;;25.70;54.30;;;;;;5020597;28;20036;-60
2021/08/12 12:13:16;;;;;;;3.50;2.78;;;25.70;54.10;;;;;;5023269;28;20053;-62
2021/08/12 12:15:45;;;;;;;4.95;3.38;;;25.70;54.10;;;;;;5021645;28;20041;-60
2021/08/12 12:18:15;;;;;;;4.40;2.70;;;25.70;54.30;;;;;;5026894;28;20033;-61
2021/08/12 12:20:44;;;;;;;4.32;2.53;;;25.70;54.50;;;;;;5024376;28;20398;-61
2021/08/12 12:23:12;;;;;;;6.78;3.78;;;25.70;54.80;;;;;;5024964;28;20034;-60
2021/08/12 12:25:43;;;;;;;5.38;3.70;;;25.70;54.80;;;;;;5020554;28;20033;-62
2021/08/12 12:28:12;;;;;;;;;;;25.70;54.90;;;;;;5021943;28;20037;-63
2021/08/12 12:30:37;;;;;;;3.28;2.60;;;25.70;55.00;;;;;;5017714;28;20434;-62
2021/08/12 12:33:07;;;;;;;5.85;3.05;;;25.70;55.30;;;;;;5018838;28;20029;-61
2021/08/12 12:35:48;;;;;;;4.95;3.17;;;25.70;55.60;;;;;;5015786;28;20036;-61
2021/08/12 12:38:17;;;;;;;2.72;2.47;;;25.70;54.90;;;;;;5019479;28;20041;-61
2021/08/12 12:40:44;;;;;;;3.83;2.58;;;25.70;54.80;;;;;;5021529;28;20040;-62
2021/08/12 12:43:10;;;;;;;3.38;2.70;;;25.70;54.80;;;;;;5015761;28;20056;-59
2021/08/12 12:45:46;;;;;;;2.75;2.47;;;25.70;55.00;;;;;;5014500;28;20021;-61
2021/08/12 12:48:11;;;;;;;3.15;2.60;;;25.70;54.70;;;;;;5015132;28;20033;-62
2021/08/12 12:50:48;;;;;;;2.60;2.40;;;25.70;54.80;;;;;;5015035;28;20025;-61
2021/08/12 12:53:35;;;;;;;3.58;2.80;;;25.70;54.40;;;;;;5011939;28;20572;-62
2021/08/12 12:56:03;;;;;;;4.63;2.90;;;25.80;54.60;;;;;;5023476;28;20069;-62